Time;durP1;ratioP1;P1;durP2;ratioP2;P2;SDS_P1;SDS_P2;PMS_P1;PMS_P2;Temp;Humidity;BMP_temperature;BMP_pressure;BME280_temperature;BME280_humidity;BME280_pressure;Samples;Min_cycle;Max_cycle;Signal;HPM_P1;HPM_P2
2021/12/08 00:01:56;;;;;;;2.38;1.50;;;21.30;41.70;;;;;;5092033;27;43417;-65
2021/12/08 00:04:23;;;;;;;1.58;1.42;;;21.30;41.60;;;;;;5082419;27;43447;-64
2021/12/08 00:06:51;;;;;;;2.80;1.40;;;21.30;41.70;;;;;;5087362;27;44015;-64
2021/12/08 00:14:33;;;;;;;1.27;1.17;;;21.20;41.60;;;;;;5066610;28;43478;-65
2021/12/08 00:17:00;;;;;;;2.22;1.50;;;21.20;41.70;;;;;;5089614;27;44668;-64
2021/12/08 00:19:28;;;;;;;1.88;1.30;;;21.10;41.70;;;;;;5071073;27;43443;-64
2021/12/08 00:21:56;;;;;;;1.35;1.25;;;21.10;41.60;;;;;;5074231;27;43986;-65
2021/12/08 00:24:25;;;;;;;1.52;1.17;;;21.10;42.30;;;;;;5057890;28;43507;-64
2021/12/08 00:26:54;;;;;;;2.17;1.33;;;21.10;41.60;;;;;;5072360;28;43918;-66
2021/12/08 00:29:22;;;;;;;1.42;1.33;;;21.00;41.60;;;;;;5084292;27;44313;-64
2021/12/08 00:31:50;;;;;;;2.45;1.55;;;21.10;41.70;;;;;;5077284;27;43487;-64
2021/12/08 00:34:17;;;;;;;2.45;1.70;;;21.00;41.60;;;;;;5057010;28;43473;-64
2021/12/08 00:36:49;;;;;;;1.75;1.20;;;21.00;41.60;;;;;;5086853;27;43796;-65
2021/12/08 00:39:17;;;;;;;2.17;1.38;;;21.10;41.60;;;;;;5069169;27;44180;-64
2021/12/08 00:41:44;;;;;;;2.20;1.45;;;21.00;41.50;;;;;;5068382;27;43404;-65
2021/12/08 00:44:12;;;;;;;2.63;1.40;;;20.90;41.70;;;;;;5087750;27;43561;-64
2021/12/08 00:46:39;;;;;;;1.92;1.50;;;20.90;41.70;;;;;;5071773;28;43887;-65
2021/12/08 00:49:09;;;;;;;2.05;1.50;;;20.80;41.80;;;;;;5074287;27;43455;-65
2021/12/08 00:51:37;;;;;;;1.93;1.33;;;20.80;41.80;;;;;;5063605;27;43432;-65
2021/12/08 00:54:05;;;;;;;1.65;1.30;;;20.80;41.90;;;;;;5073403;27;43744;-66
2021/12/08 00:56:32;;;;;;;1.58;1.30;;;20.70;41.90;;;;;;5071063;28;43921;-63
2021/12/08 00:59:00;;;;;;;1.88;1.50;;;20.70;42.60;;;;;;5090892;27;43411;-65
2021/12/08 01:01:29;;;;;;;1.60;1.25;;;20.70;41.90;;;;;;5081151;27;43494;-64
2021/12/08 01:03:59;;;;;;;1.55;1.20;;;20.70;41.90;;;;;;5087968;27;43394;-65
2021/12/08 01:06:27;;;;;;;1.45;1.35;;;20.60;41.90;;;;;;5086429;27;43856;-65
2021/12/08 01:08:55;;;;;;;1.33;1.23;;;20.60;41.90;;;;;;5084345;27;43680;-66
2021/12/08 01:11:23;;;;;;;1.48;1.20;;;20.60;42.00;;;;;;5083577;27;43393;-66
2021/12/08 01:13:51;;;;;;;2.03;1.38;;;20.60;42.00;;;;;;5091398;27;43440;-64
2021/12/08 01:16:20;;;;;;;2.13;1.42;;;20.60;42.00;;;;;;5090548;27;44875;-64
2021/12/08 01:18:48;;;;;;;2.13;1.38;;;20.60;42.00;;;;;;5086232;27;43501;-65
2021/12/08 01:21:18;;;;;;;1.75;1.20;;;20.60;42.00;;;;;;5072572;27;43439;-64
2021/12/08 01:23:45;;;;;;;1.50;1.17;;;20.50;42.00;;;;;;5083877;27;43446;-63
2021/12/08 01:26:13;;;;;;;1.70;1.33;;;20.50;42.10;;;;;;5088262;27;44955;-66
2021/12/08 01:28:40;;;;;;;1.55;1.30;;;20.50;42.20;;;;;;5063820;27;43423;-65
2021/12/08 01:31:08;;;;;;;2.20;1.33;;;20.50;42.10;;;;;;5066352;27;43520;-65
2021/12/08 01:33:36;;;;;;;1.63;1.30;;;20.50;42.20;;;;;;5090744;27;43720;-66
2021/12/08 01:36:06;;;;;;;2.33;1.52;;;20.50;42.10;;;;;;5075064;28;43753;-65
2021/12/08 01:38:35;;;;;;;1.67;1.15;;;20.40;42.20;;;;;;5083921;27;44150;-63
2021/12/08 01:41:03;;;;;;;1.40;1.20;;;20.40;42.10;;;;;;5081874;27;43452;-65
2021/12/08 01:43:42;;;;;;;1.40;1.30;;;20.50;42.20;;;;;;5089079;27;43463;-65
2021/12/08 01:46:13;;;;;;;1.40;1.20;;;20.40;42.20;;;;;;5086513;27;43808;-64
2021/12/08 01:48:43;;;;;;;1.30;1.20;;;20.40;42.20;;;;;;5069330;27;44075;-65
2021/12/08 01:51:14;;;;;;;1.30;1.20;;;20.40;42.20;;;;;;5093115;27;43451;-65
2021/12/08 01:53:44;;;;;;;;;;;20.40;42.20;;;;;;5085962;27;43400;-64
2021/12/08 01:56:12;;;;;;;2.90;1.35;;;20.40;42.20;;;;;;5079372;27;43626;-64
2021/12/08 01:58:40;;;;;;;0.93;0.85;;;20.30;42.20;;;;;;5080103;27;43839;-65
2021/12/08 02:01:11;;;;;;;1.33;1.20;;;20.40;42.20;;;;;;5088022;27;43503;-65
2021/12/08 02:03:39;;;;;;;1.10;1.00;;;20.30;42.20;;;;;;5069479;28;43486;-65
2021/12/08 02:06:08;;;;;;;2.15;1.23;;;20.30;42.20;;;;;;5080018;27;45067;-64
2021/12/08 02:08:37;;;;;;;1.50;1.30;;;20.30;42.30;;;;;;5086769;27;43492;-64
2021/12/08 02:11:06;;;;;;;2.60;1.55;;;20.30;42.30;;;;;;5087618;27;43381;-65
2021/12/08 02:13:38;;;;;;;1.60;1.35;;;20.30;42.20;;;;;;5085753;27;43513;-65
2021/12/08 02:16:10;;;;;;;1.65;1.30;;;20.40;42.10;;;;;;5080839;27;44809;-65
2021/12/08 02:18:38;;;;;;;1.48;1.20;;;20.40;42.00;;;;;;5093367;27;43471;-65
2021/12/08 02:21:22;;;;;;;1.35;1.10;;;20.50;42.00;;;;;;5086071;27;43433;-65
2021/12/08 02:23:51;;;;;;;2.28;1.40;;;20.50;41.90;;;;;;5079524;27;43629;-65
2021/12/08 02:26:19;;;;;;;1.25;1.10;;;20.50;41.80;;;;;;5068555;27;43944;-65
2021/12/08 02:28:47;;;;;;;1.80;1.27;;;20.50;41.80;;;;;;5069602;28;44779;-64
2021/12/08 02:31:20;;;;;;;1.67;1.30;;;20.60;41.70;;;;;;5085771;27;43522;-64
2021/12/08 02:47:53;;;;;;;1.20;0.90;;;20.60;41.60;;;;;;5081367;27;43631;-65
2021/12/08 02:50:34;;;;;;;1.38;1.27;;;20.60;41.60;;;;;;5068521;28;44023;-63
2021/12/08 02:53:03;;;;;;;1.10;1.00;;;20.60;41.50;;;;;;5079860;27;43506;-64
2021/12/08 02:55:31;;;;;;;1.30;1.20;;;20.60;41.50;;;;;;5092074;27;43419;-65
2021/12/08 02:58:01;;;;;;;1.30;1.13;;;20.60;41.40;;;;;;5088108;27;43780;-65
2021/12/08 03:00:35;;;;;;;1.55;1.10;;;20.60;41.40;;;;;;5082421;27;44052;-65
2021/12/08 03:03:04;;;;;;;1.33;1.00;;;20.60;41.40;;;;;;5077548;27;43474;-65
2021/12/08 03:05:33;;;;;;;1.20;1.10;;;20.60;41.40;;;;;;5096432;27;43451;-65
2021/12/08 03:08:01;;;;;;;1.88;1.20;;;20.60;41.50;;;;;;5086328;27;43814;-63
2021/12/08 03:10:35;;;;;;;0.95;0.85;;;20.60;41.50;;;;;;5081318;27;43482;-65
2021/12/08 03:13:03;;;;;;;0.80;0.80;;;20.60;41.40;;;;;;5080549;27;43457;-66
2021/12/08 03:15:30;;;;;;;1.10;1.00;;;20.60;41.50;;;;;;5096053;27;43612;-65
2021/12/08 03:17:58;;;;;;;0.98;0.90;;;20.60;41.50;;;;;;5083798;27;44068;-65
2021/12/08 03:20:38;;;;;;;1.10;1.00;;;20.60;41.60;;;;;;5066175;28;43688;-64
2021/12/08 03:23:09;;;;;;;1.13;1.02;;;20.60;41.50;;;;;;5061108;27;43508;-65
2021/12/08 03:25:40;;;;;;;1.50;0.95;;;20.60;41.60;;;;;;5066092;28;43508;-65
2021/12/08 03:28:23;;;;;;;0.85;0.77;;;20.60;41.60;;;;;;5066613;27;46147;-65
2021/12/08 03:33:22;;;;;;;;;;;20.60;41.60;;;;;;5096084;27;43463;-64
2021/12/08 03:35:50;;;;;;;1.02;1.00;;;20.60;41.60;;;;;;5068506;28;43459;-64
2021/12/08 03:38:19;;;;;;;1.70;1.35;;;20.50;41.60;;;;;;5083806;27;44411;-63
2021/12/08 03:40:48;;;;;;;1.17;1.00;;;20.50;41.60;;;;;;5094557;27;43531;-64
2021/12/08 03:43:16;;;;;;;1.10;1.00;;;20.60;41.70;;;;;;5093696;27;43397;-65
2021/12/08 03:45:47;;;;;;;1.10;0.80;;;20.50;41.70;;;;;;5085757;27;43504;-66
2021/12/08 03:48:21;;;;;;;1.13;0.90;;;20.50;41.70;;;;;;5083355;27;44138;-65
2021/12/08 03:50:48;;;;;;;1.15;1.05;;;20.50;41.70;;;;;;5090815;27;43448;-65
2021/12/08 03:53:16;;;;;;;0.85;0.82;;;20.50;41.60;;;;;;5074664;28;43535;-64
2021/12/08 03:55:46;;;;;;;1.35;1.00;;;20.50;41.70;;;;;;5089510;27;43461;-65
2021/12/08 03:58:15;;;;;;;0.95;0.82;;;20.50;41.80;;;;;;5070721;27;44944;-65
2021/12/08 04:00:44;;;;;;;0.82;0.82;;;20.50;41.70;;;;;;5097413;27;43461;-65
2021/12/08 04:03:12;;;;;;;0.80;0.80;;;20.50;41.60;;;;;;5071419;28;43464;-64
2021/12/08 04:05:46;;;;;;;1.77;0.88;;;20.50;41.60;;;;;;5085960;27;43450;-64
2021/12/08 04:08:17;;;;;;;1.10;0.90;;;20.50;41.70;;;;;;5062227;27;43932;-65
2021/12/08 04:10:46;;;;;;;;;;;20.50;41.70;;;;;;5072654;28;43692;-65
2021/12/08 04:13:14;;;;;;;1.05;0.90;;;20.50;41.80;;;;;;5066779;28;43504;-64
2021/12/08 04:15:42;;;;;;;0.75;0.75;;;20.40;41.90;;;;;;5080542;27;43454;-66
2021/12/08 04:18:11;;;;;;;0.88;0.80;;;20.40;41.90;;;;;;5097013;27;43795;-66
2021/12/08 04:20:44;;;;;;;1.35;1.00;;;20.40;41.80;;;;;;5091779;27;43511;-66
2021/12/08 04:23:14;;;;;;;1.00;0.90;;;20.40;41.80;;;;;;5049874;28;44079;-64
2021/12/08 04:25:45;;;;;;;1.17;0.73;;;20.40;41.90;;;;;;5063084;27;43537;-64
2021/12/08 04:28:17;;;;;;;0.68;0.68;;;20.40;41.80;;;;;;5073781;27;44210;-66
2021/12/08 04:31:30;;;;;;;0.98;0.80;;;20.40;41.90;;;;;;5069484;28;43493;-66
2021/12/08 04:34:03;;;;;;;1.08;0.98;;;20.40;41.90;;;;;;5075567;27;43447;-66
2021/12/08 04:36:40;;;;;;;0.70;0.70;;;20.40;41.90;;;;;;5073643;27;43484;-64
2021/12/08 04:39:14;;;;;;;0.93;0.82;;;20.40;41.90;;;;;;5075157;27;45257;-66
2021/12/08 04:41:47;;;;;;;1.50;0.90;;;20.40;41.90;;;;;;5062191;27;43996;-67
2021/12/08 04:44:32;;;;;;;1.25;1.00;;;20.40;41.90;;;;;;5076190;27;43379;-63
2021/12/08 04:52:38;;;;;;;0.80;0.80;;;20.40;42.00;;;;;;5078185;27;43525;-65
2021/12/08 05:01:22;;;;;;;0.70;0.70;;;20.30;42.00;;;;;;5085696;27;44039;-64
2021/12/08 05:09:33;;;;;;;0.80;0.80;;;20.30;42.10;;;;;;5043723;27;43482;-64
2021/12/08 05:12:10;;;;;;;0.70;0.70;;;20.30;42.10;;;;;;5064322;28;44687;-66
2021/12/08 05:15:07;;;;;;;0.82;0.82;;;20.30;42.10;;;;;;5089069;27;43478;-65
2021/12/08 05:17:46;;;;;;;0.82;0.82;;;20.30;42.10;;;;;;5069709;28;43529;-64
2021/12/08 05:20:33;;;;;;;0.75;0.75;;;20.30;42.20;;;;;;5082053;27;43456;-65
2021/12/08 05:23:10;;;;;;;1.38;0.75;;;20.20;42.10;;;;;;5076681;27;44738;-66
2021/12/08 05:25:39;;;;;;;0.60;0.60;;;20.20;42.10;;;;;;5071374;27;43484;-64
2021/12/08 05:28:16;;;;;;;0.70;0.70;;;20.20;42.20;;;;;;5066316;28;43523;-66
2021/12/08 05:30:57;;;;;;;0.80;0.80;;;20.20;42.20;;;;;;5062397;27;43459;-64
2021/12/08 05:33:25;;;;;;;0.90;0.80;;;20.20;42.20;;;;;;5092576;27;45091;-63
2021/12/08 05:35:55;;;;;;;1.63;0.88;;;20.20;42.20;;;;;;5085561;27;43465;-64
2021/12/08 05:38:24;;;;;;;1.05;0.80;;;20.20;42.20;;;;;;5063533;27;43471;-65
2021/12/08 05:41:16;;;;;;;0.82;0.82;;;20.20;42.20;;;;;;5096076;27;43427;-64
2021/12/08 05:43:45;;;;;;;;;;;20.20;42.20;;;;;;5070795;28;44228;-64
2021/12/08 05:46:15;;;;;;;0.50;0.50;;;20.20;42.30;;;;;;5067579;27;43497;-65
2021/12/08 05:48:46;;;;;;;1.25;0.98;;;20.20;42.30;;;;;;5084361;27;43429;-65
2021/12/08 05:51:18;;;;;;;1.00;0.90;;;20.20;42.30;;;;;;5086273;27;43573;-65
2021/12/08 05:53:50;;;;;;;1.13;0.85;;;20.20;42.30;;;;;;5072658;28;46122;-65
2021/12/08 05:56:19;;;;;;;0.88;0.80;;;20.20;42.30;;;;;;5077986;27;43557;-65
2021/12/08 05:58:50;;;;;;;1.15;0.95;;;20.20;42.30;;;;;;5068528;27;43501;-65
2021/12/08 06:01:24;;;;;;;0.82;0.70;;;20.20;42.30;;;;;;5084309;27;44033;-65
2021/12/08 06:03:51;;;;;;;0.80;0.80;;;20.20;42.40;;;;;;5069235;27;44956;-64
2021/12/08 06:06:22;;;;;;;0.82;0.70;;;20.10;42.30;;;;;;5078320;27;43471;-66
2021/12/08 06:08:51;;;;;;;0.75;0.75;;;20.20;42.40;;;;;;5089112;27;43910;-65
2021/12/08 06:11:23;;;;;;;0.60;0.60;;;20.10;42.30;;;;;;5073309;28;44049;-65
2021/12/08 06:13:50;;;;;;;1.00;0.88;;;20.10;42.40;;;;;;5067683;27;44593;-63
2021/12/08 06:16:21;;;;;;;0.80;0.60;;;20.10;42.40;;;;;;5082255;27;43525;-64
2021/12/08 06:18:52;;;;;;;0.50;0.50;;;20.10;42.30;;;;;;5069039;28;43407;-65
2021/12/08 06:21:23;;;;;;;0.67;0.67;;;20.10;42.40;;;;;;5070429;28;43542;-65
2021/12/08 06:23:51;;;;;;;0.55;0.55;;;20.10;42.40;;;;;;5065254;27;44969;-64
2021/12/08 06:26:21;;;;;;;0.73;0.73;;;20.10;42.40;;;;;;5086069;27;43448;-63
2021/12/08 06:28:49;;;;;;;0.80;0.80;;;20.10;42.40;;;;;;5069508;28;43481;-65
2021/12/08 06:31:19;;;;;;;1.17;0.77;;;20.10;42.40;;;;;;5088343;27;43526;-64
2021/12/08 06:33:47;;;;;;;0.70;0.70;;;20.10;42.40;;;;;;5042910;28;44459;-63
2021/12/08 06:36:25;;;;;;;0.95;0.70;;;20.10;42.40;;;;;;5065802;27;44828;-64
2021/12/08 06:38:53;;;;;;;0.70;0.70;;;20.10;42.40;;;;;;5085546;27;43517;-65
2021/12/08 06:41:33;;;;;;;0.88;0.88;;;20.10;42.40;;;;;;5069863;27;43466;-65
2021/12/08 06:44:08;;;;;;;0.68;0.68;;;20.10;42.50;;;;;;5086270;27;44066;-64
2021/12/08 06:46:36;;;;;;;1.17;0.80;;;20.10;42.40;;;;;;5064917;27;43549;-65
2021/12/08 06:49:06;;;;;;;1.17;0.80;;;20.10;42.50;;;;;;5087950;27;43472;-65
2021/12/08 06:51:43;;;;;;;0.73;0.73;;;20.10;42.50;;;;;;5064661;27;43486;-65
2021/12/08 06:54:39;;;;;;;0.70;0.70;;;20.10;42.40;;;;;;5088390;27;44738;-65
2021/12/08 06:57:17;;;;;;;0.75;0.75;;;20.10;42.50;;;;;;5089110;27;43508;-66
2021/12/08 07:05:29;;;;;;;0.60;0.60;;;20.10;43.20;;;;;;5054545;28;44923;-65
2021/12/08 07:08:04;;;;;;;1.67;1.00;;;20.10;42.50;;;;;;5083355;27;43777;-64
2021/12/08 07:10:37;;;;;;;0.70;0.70;;;20.10;42.50;;;;;;5079092;27;43502;-63
2021/12/08 07:13:10;;;;;;;0.52;0.52;;;20.10;42.50;;;;;;5060055;27;43598;-65
2021/12/08 07:15:40;;;;;;;0.70;0.68;;;20.10;42.60;;;;;;5072382;27;45002;-64
2021/12/08 07:18:13;;;;;;;0.70;0.70;;;20.10;42.60;;;;;;5064470;28;44003;-65
2021/12/08 07:20:47;;;;;;;0.80;0.80;;;20.10;42.50;;;;;;5082004;27;43459;-66
2021/12/08 07:23:24;;;;;;;0.80;0.73;;;20.10;42.50;;;;;;5090739;27;43518;-64
2021/12/08 07:25:53;;;;;;;0.75;0.68;;;20.10;42.50;;;;;;5069125;27;44036;-64
2021/12/08 07:28:27;;;;;;;0.80;0.80;;;20.10;42.50;;;;;;5084487;27;43494;-65
2021/12/08 07:31:06;;;;;;;0.85;0.85;;;20.20;42.60;;;;;;5084304;27;43434;-63
2021/12/08 07:33:33;;;;;;;0.63;0.63;;;20.10;42.60;;;;;;5088756;27;43442;-64
2021/12/08 07:36:07;;;;;;;0.98;0.80;;;20.20;42.60;;;;;;5090210;27;43823;-64
2021/12/08 07:38:35;;;;;;;0.68;0.68;;;20.10;42.50;;;;;;5082037;27;43510;-64
2021/12/08 07:41:10;;;;;;;0.90;0.90;;;20.20;42.50;;;;;;5087855;27;43498;-64
2021/12/08 07:43:52;;;;;;;1.02;1.02;;;20.20;42.50;;;;;;5088591;27;43497;-64
2021/12/08 07:46:36;;;;;;;0.63;0.63;;;20.20;42.60;;;;;;5088801;27;46283;-65
2021/12/08 07:49:12;;;;;;;0.95;0.82;;;20.20;42.50;;;;;;5071720;27;43516;-64
2021/12/08 07:51:44;;;;;;;1.20;1.02;;;20.20;42.60;;;;;;5085599;27;43465;-64
2021/12/08 07:54:12;;;;;;;1.02;0.75;;;20.20;42.50;;;;;;5092904;27;43379;-66
2021/12/08 07:56:43;;;;;;;0.98;0.85;;;20.20;42.60;;;;;;5062009;28;44018;-66
2021/12/08 07:59:12;;;;;;;;;;;20.20;42.60;;;;;;5084408;27;43469;-64
2021/12/08 08:01:45;;;;;;;0.98;0.80;;;20.20;42.60;;;;;;5089783;27;43453;-65
2021/12/08 08:04:16;;;;;;;1.90;0.70;;;20.10;42.70;;;;;;5076453;27;43570;-64
2021/12/08 08:06:45;;;;;;;;;;;20.20;42.80;;;;;;5088518;27;44062;-64
2021/12/08 08:09:18;;;;;;;0.80;0.80;;;20.20;42.80;;;;;;5085794;27;43474;-63
2021/12/08 08:11:55;;;;;;;1.15;0.75;;;20.10;42.80;;;;;;5073967;27;43443;-64
2021/12/08 08:14:31;;;;;;;1.05;0.95;;;20.20;42.90;;;;;;5079787;27;43508;-65
2021/12/08 08:17:00;;;;;;;0.90;0.90;;;20.20;42.90;;;;;;5086977;27;44045;-64
2021/12/08 08:19:30;;;;;;;0.70;0.70;;;20.20;42.90;;;;;;5087501;27;43566;-63
2021/12/08 08:22:05;;;;;;;1.02;0.77;;;20.20;42.90;;;;;;5094051;27;43421;-63
2021/12/08 08:24:33;;;;;;;1.02;0.70;;;20.20;43.00;;;;;;5060906;28;43440;-64
2021/12/08 08:27:05;;;;;;;0.90;0.90;;;20.20;43.10;;;;;;5089388;27;43576;-64
2021/12/08 08:29:33;;;;;;;1.00;0.80;;;20.20;43.00;;;;;;5074125;27;43415;-63
2021/12/08 08:32:20;;;;;;;0.80;0.80;;;20.20;43.00;;;;;;5088037;27;43515;-64
2021/12/08 08:34:52;;;;;;;1.55;0.80;;;20.20;43.10;;;;;;5068119;27;43491;-63
2021/12/08 08:37:20;;;;;;;0.80;0.70;;;20.20;43.20;;;;;;5091155;27;43814;-63
2021/12/08 08:39:51;;;;;;;0.85;0.70;;;20.20;43.20;;;;;;5092578;27;43483;-63
2021/12/08 08:42:27;;;;;;;0.50;0.50;;;20.20;43.20;;;;;;5079243;27;43559;-64
2021/12/08 08:45:12;;;;;;;1.23;0.68;;;20.30;42.90;;;;;;5091480;27;43461;-64
2021/12/08 08:47:49;;;;;;;1.10;0.68;;;20.30;43.00;;;;;;5083463;27;43870;-63
2021/12/08 08:50:29;;;;;;;0.60;0.60;;;20.30;42.90;;;;;;5084276;27;43569;-65
2021/12/08 08:52:58;;;;;;;0.75;0.70;;;20.40;42.80;;;;;;5074228;27;43460;-64
2021/12/08 08:55:50;;;;;;;1.05;0.82;;;20.40;42.90;;;;;;5080564;27;43432;-64
2021/12/08 08:58:21;;;;;;;1.05;0.60;;;20.40;42.90;;;;;;5083068;27;44031;-64
2021/12/08 09:01:12;;;;;;;0.77;0.68;;;20.40;43.00;;;;;;5080702;27;43491;-64
2021/12/08 09:03:44;;;;;;;0.75;0.75;;;20.40;42.90;;;;;;5083581;27;43438;-64
2021/12/08 09:06:23;;;;;;;0.98;0.90;;;20.50;43.00;;;;;;5087143;27;43518;-64
2021/12/08 09:08:51;;;;;;;0.63;0.63;;;20.50;43.00;;;;;;5084967;27;43627;-63
2021/12/08 09:11:32;;;;;;;0.60;0.60;;;20.50;42.90;;;;;;5072428;27;43699;-64
2021/12/08 09:14:07;;;;;;;;;;;20.50;42.90;;;;;;5069370;28;43462;-66
2021/12/08 09:16:45;;;;;;;0.95;0.95;;;20.50;42.90;;;;;;5063949;27;43538;-63
2021/12/08 09:19:21;;;;;;;1.10;0.82;;;20.60;43.00;;;;;;5064409;28;44173;-63
2021/12/08 09:21:55;;;;;;;0.75;0.70;;;20.50;42.90;;;;;;5071028;28;43569;-64
2021/12/08 09:24:48;;;;;;;0.65;0.65;;;20.60;42.90;;;;;;5074396;27;43465;-63
2021/12/08 09:27:21;;;;;;;0.80;0.60;;;20.60;42.90;;;;;;5085459;27;43513;-65
2021/12/08 09:29:56;;;;;;;1.05;0.80;;;20.60;42.90;;;;;;5075128;27;44777;-63
2021/12/08 09:32:36;;;;;;;0.77;0.77;;;20.60;42.90;;;;;;5087038;27;43542;-63
2021/12/08 09:35:21;;;;;;;0.75;0.75;;;20.70;43.00;;;;;;5089852;27;43456;-63
2021/12/08 09:38:09;;;;;;;0.77;0.77;;;20.70;43.00;;;;;;5064929;28;43653;-62
2021/12/08 09:40:49;;;;;;;1.20;0.80;;;20.70;43.10;;;;;;5061678;27;44189;-63
2021/12/08 09:43:43;;;;;;;0.77;0.77;;;20.60;43.20;;;;;;5070369;27;43489;-64
2021/12/08 09:46:21;;;;;;;1.15;0.80;;;20.60;43.20;;;;;;5085268;27;43502;-64
2021/12/08 09:48:49;;;;;;;0.98;0.88;;;20.70;43.20;;;;;;5086274;27;43438;-63
2021/12/08 09:51:23;;;;;;;1.27;0.80;;;20.70;43.30;;;;;;5083556;27;44002;-64
2021/12/08 09:53:52;;;;;;;0.70;0.70;;;20.70;43.10;;;;;;5082324;27;43657;-64
2021/12/08 09:56:21;;;;;;;0.80;0.80;;;20.70;43.10;;;;;;5073820;27;43414;-65
2021/12/08 09:58:49;;;;;;;1.33;0.70;;;20.80;43.20;;;;;;5085689;27;43554;-64
2021/12/08 10:01:20;;;;;;;1.08;0.75;;;20.80;43.20;;;;;;5078969;27;43818;-63
2021/12/08 10:03:50;;;;;;;1.13;1.00;;;20.80;43.10;;;;;;5081810;27;43945;-63
2021/12/08 10:06:21;;;;;;;1.50;0.80;;;20.90;43.20;;;;;;5075471;28;43446;-63
2021/12/08 10:08:49;;;;;;;0.60;0.60;;;20.80;43.20;;;;;;5074851;28;43577;-63
2021/12/08 10:11:19;;;;;;;0.70;0.70;;;20.80;43.20;;;;;;5085847;27;44954;-64
2021/12/08 10:13:47;;;;;;;1.42;0.90;;;20.80;43.50;;;;;;5086902;27;43740;-62
2021/12/08 10:16:15;;;;;;;0.93;0.80;;;20.80;43.40;;;;;;5083503;27;44017;-63
2021/12/08 10:18:43;;;;;;;1.15;0.93;;;20.80;43.30;;;;;;5083600;27;43458;-62
2021/12/08 10:21:13;;;;;;;1.27;0.88;;;20.90;43.40;;;;;;5088774;27;44083;-64
2021/12/08 10:23:44;;;;;;;1.43;0.90;;;20.90;43.30;;;;;;5074574;27;43535;-64
2021/12/08 10:26:17;;;;;;;1.23;0.82;;;20.90;43.30;;;;;;5068020;27;43435;-65
2021/12/08 10:28:46;;;;;;;0.80;0.75;;;21.00;43.20;;;;;;5066401;28;43419;-63
2021/12/08 10:31:26;;;;;;;1.95;1.02;;;21.00;43.30;;;;;;5090062;27;43575;-64
2021/12/08 10:34:22;;;;;;;1.33;0.87;;;21.00;43.30;;;;;;5057935;28;44014;-63
2021/12/08 10:37:04;;;;;;;2.15;1.02;;;21.00;43.30;;;;;;5067921;28;43556;-64
2021/12/08 10:39:35;;;;;;;2.03;1.00;;;21.00;43.30;;;;;;5076458;27;43796;-64
2021/12/08 10:42:06;;;;;;;3.00;1.00;;;21.00;43.40;;;;;;5080309;27;44973;-63
2021/12/08 10:44:51;;;;;;;1.17;0.95;;;21.10;43.40;;;;;;5054758;28;43505;-65
2021/12/08 10:47:27;;;;;;;1.35;0.93;;;21.10;43.40;;;;;;5079221;27;43481;-64
2021/12/08 10:55:20;;;;;;;3.50;1.20;;;21.10;43.60;;;;;;5082999;27;43981;-64
2021/12/08 10:57:53;;;;;;;2.40;1.20;;;21.00;43.50;;;;;;5071884;27;43566;-63
2021/12/08 11:00:30;;;;;;;2.47;1.75;;;21.00;43.60;;;;;;5063882;27;43541;-63
2021/12/08 11:03:12;;;;;;;4.15;1.65;;;21.10;43.70;;;;;;5063032;27;43952;-63
2021/12/08 11:05:57;;;;;;;4.38;1.90;;;21.00;43.60;;;;;;5077318;27;44119;-64
2021/12/08 11:08:32;;;;;;;8.48;2.63;;;21.10;43.60;;;;;;5088189;27;43483;-63
2021/12/08 11:11:04;;;;;;;5.53;2.17;;;21.10;43.70;;;;;;5081162;27;43466;-64
2021/12/08 11:13:43;;;;;;;7.22;2.40;;;21.10;43.90;;;;;;5058582;27;43957;-62
2021/12/08 11:16:29;;;;;;;6.47;2.50;;;21.10;44.00;;;;;;5087185;27;43459;-62
2021/12/08 11:19:10;;;;;;;7.97;2.80;;;21.10;44.30;;;;;;5088120;27;43441;-62
2021/12/08 11:21:41;;;;;;;9.75;2.80;;;21.10;44.50;;;;;;5077032;28;44041;-62
2021/12/08 11:24:35;;;;;;;7.75;2.97;;;21.10;44.50;;;;;;5079643;27;43794;-63
2021/12/08 11:27:08;;;;;;;7.97;3.00;;;21.00;44.60;;;;;;5073622;27;43438;-63
2021/12/08 11:29:38;;;;;;;7.43;2.90;;;21.00;44.60;;;;;;5091684;27;43425;-62
2021/12/08 11:32:08;;;;;;;8.43;3.20;;;21.00;44.80;;;;;;5088871;27;43498;-64
2021/12/08 11:34:46;;;;;;;10.07;3.37;;;21.10;44.80;;;;;;5079817;27;45041;-64
2021/12/08 11:37:24;;;;;;;8.38;3.30;;;21.10;44.60;;;;;;5085202;27;43477;-63
2021/12/08 11:40:00;;;;;;;8.75;2.78;;;21.10;44.60;;;;;;5061110;28;43470;-62
2021/12/08 11:42:35;;;;;;;6.32;2.97;;;21.10;44.60;;;;;;5071678;27;43483;-64
2021/12/08 11:45:12;;;;;;;5.80;3.05;;;21.20;44.50;;;;;;5088604;27;45027;-63
2021/12/08 11:47:42;;;;;;;7.13;2.72;;;21.20;44.40;;;;;;5083948;27;43498;-64
2021/12/08 11:50:16;;;;;;;5.95;3.13;;;21.30;44.50;;;;;;5074031;27;43512;-64
2021/12/08 11:52:43;;;;;;;7.65;3.15;;;21.40;44.40;;;;;;5060452;27;43580;-63
2021/12/08 11:55:14;;;;;;;7.82;3.45;;;21.40;44.50;;;;;;5067293;27;43801;-64
2021/12/08 11:57:45;;;;;;;6.97;2.87;;;21.40;44.40;;;;;;5064136;28;43883;-63
2021/12/08 12:00:16;;;;;;;7.25;3.20;;;21.40;44.40;;;;;;5058742;28;43606;-63
2021/12/08 12:03:02;;;;;;;5.97;3.00;;;21.40;44.40;;;;;;5056358;27;43712;-63
2021/12/08 12:05:36;;;;;;;4.90;2.80;;;21.50;44.40;;;;;;5052185;28;43995;-63
2021/12/08 12:08:09;;;;;;;5.00;2.70;;;21.50;44.60;;;;;;5071349;27;43577;-63
2021/12/08 12:10:48;;;;;;;8.88;3.40;;;21.50;44.40;;;;;;5067800;27;43588;-62
2021/12/08 12:13:15;;;;;;;6.03;2.97;;;21.50;44.40;;;;;;5075873;27;43639;-64
2021/12/08 12:15:49;;;;;;;5.90;2.80;;;21.60;44.50;;;;;;5048192;27;45003;-62
2021/12/08 12:18:18;;;;;;;5.65;3.00;;;21.60;44.40;;;;;;5046777;28;44291;-62
2021/12/08 12:20:55;;;;;;;5.65;2.90;;;21.60;44.30;;;;;;5070555;27;43588;-62
2021/12/08 12:23:44;;;;;;;6.20;2.92;;;21.60;44.20;;;;;;5064191;27;43613;-62
2021/12/08 12:26:56;;;;;;;5.57;3.17;;;21.70;44.30;;;;;;5066603;27;43803;-63
2021/12/08 12:29:52;;;;;;;5.88;2.80;;;21.70;44.30;;;;;;5066392;27;43592;-62
2021/12/08 12:32:26;;;;;;;4.78;2.72;;;21.70;44.30;;;;;;5070470;27;43619;-63
2021/12/08 12:35:16;;;;;;;5.03;2.55;;;21.70;44.30;;;;;;5071162;27;43523;-63
2021/12/08 12:37:44;;;;;;;4.97;2.30;;;21.70;44.20;;;;;;5066652;27;45016;-63
2021/12/08 12:40:18;;;;;;;4.60;2.40;;;21.70;44.20;;;;;;5062277;27;43530;-63
2021/12/08 12:42:47;;;;;;;5.55;2.47;;;21.80;44.30;;;;;;5063996;27;43644;-63
2021/12/08 12:45:16;;;;;;;5.82;2.60;;;21.80;44.50;;;;;;5069000;27;43644;-63
2021/12/08 12:48:05;;;;;;;3.72;2.35;;;21.80;44.40;;;;;;5068164;27;44759;-63
2021/12/08 12:50:52;;;;;;;5.22;2.63;;;21.80;44.30;;;;;;5053383;28;43598;-63
2021/12/08 12:53:39;;;;;;;4.22;2.50;;;21.80;44.30;;;;;;5049271;28;43653;-63
2021/12/08 12:56:11;;;;;;;6.05;2.80;;;21.80;44.30;;;;;;5062952;27;44204;-63
2021/12/08 12:59:10;;;;;;;4.20;2.65;;;21.80;44.40;;;;;;5048249;28;44019;-63
2021/12/08 13:01:44;;;;;;;4.65;2.38;;;21.90;44.40;;;;;;5066874;27;43551;-63
2021/12/08 13:04:22;;;;;;;4.10;2.42;;;21.90;45.20;;;;;;5059512;27;43569;-63
2021/12/08 13:07:01;;;;;;;4.38;2.13;;;21.90;44.50;;;;;;5070046;27;43530;-64
2021/12/08 13:09:43;;;;;;;4.65;2.10;;;21.90;44.40;;;;;;5060089;27;44037;-63
2021/12/08 13:12:38;;;;;;;5.15;2.25;;;21.90;44.40;;;;;;5046804;28;43575;-63
2021/12/08 13:15:13;;;;;;;3.35;2.05;;;22.00;44.60;;;;;;5067598;28;43564;-63
2021/12/08 13:18:11;;;;;;;7.63;2.13;;;21.90;44.50;;;;;;5038707;28;43748;-64
2021/12/08 13:20:46;;;;;;;6.70;2.42;;;22.00;44.50;;;;;;5033760;27;45045;-63
2021/12/08 13:23:17;;;;;;;4.72;2.00;;;22.00;44.50;;;;;;5064959;27;43678;-64
2021/12/08 13:28:25;;;;;;;3.95;1.95;;;22.10;44.50;;;;;;5069473;27;43545;-62
2021/12/08 13:31:08;;;;;;;4.05;1.92;;;22.10;44.40;;;;;;5066404;27;43744;-63
2021/12/08 13:33:52;;;;;;;4.95;2.10;;;22.00;44.50;;;;;;5064689;27;43614;-63
2021/12/08 13:36:22;;;;;;;3.75;2.00;;;22.00;44.50;;;;;;5061681;27;43555;-63
2021/12/08 13:38:59;;;;;;;2.83;1.63;;;22.00;44.60;;;;;;5067080;27;43577;-63
2021/12/08 13:41:35;;;;;;;4.00;1.85;;;22.00;44.70;;;;;;5063611;28;44810;-63
2021/12/08 13:44:36;;;;;;;4.20;2.00;;;22.00;44.80;;;;;;5048940;28;43667;-63
2021/12/08 13:47:34;;;;;;;4.68;2.20;;;22.00;44.90;;;;;;5071556;27;43571;-62
2021/12/08 13:50:16;;;;;;;4.97;2.13;;;22.00;44.80;;;;;;5055219;27;43862;-62
2021/12/08 13:53:10;;;;;;;3.05;1.50;;;21.90;44.90;;;;;;5064360;28;43908;-62
2021/12/08 13:55:41;;;;;;;2.42;1.70;;;21.90;45.00;;;;;;5059342;28;43931;-63
2021/12/08 13:58:22;;;;;;;3.03;1.60;;;22.00;45.10;;;;;;5067055;27;43585;-63
2021/12/08 14:00:51;;;;;;;4.43;2.23;;;21.90;45.00;;;;;;5069885;27;44223;-63
2021/12/08 14:03:40;;;;;;;3.63;2.00;;;21.90;45.00;;;;;;5060685;28;44839;-62
2021/12/08 14:06:09;;;;;;;3.55;1.90;;;21.90;45.00;;;;;;5060623;27;43991;-63
2021/12/08 14:08:49;;;;;;;4.30;2.08;;;21.90;45.10;;;;;;5068065;27;43558;-63
2021/12/08 14:11:19;;;;;;;4.40;1.90;;;21.90;45.20;;;;;;5068549;27;43554;-61
2021/12/08 14:13:52;;;;;;;3.17;1.60;;;21.90;45.10;;;;;;5071537;27;43898;-63
2021/12/08 14:16:22;;;;;;;1.80;1.25;;;21.90;45.20;;;;;;5064663;28;43984;-62